createdAt,value
2019-03-28T00:00:54.375Z,65.27
2019-03-28T00:03:23.891Z,67.23
2019-03-28T00:05:53.782Z,68.13
2019-03-28T00:08:23.707Z,68.23
2019-03-28T00:10:53.230Z,67.90
2019-03-28T00:13:22.816Z,69.90
2019-03-28T00:15:52.354Z,72.60
2019-03-28T00:18:21.903Z,72.63
2019-03-28T00:20:51.478Z,73.30
2019-03-28T00:23:34.864Z,73.50
2019-03-28T00:26:04.476Z,72.30
2019-03-28T00:28:34.043Z,72.70
2019-03-28T00:31:04.713Z,73.40
2019-03-28T00:33:34.249Z,71.53
2019-03-28T00:36:03.981Z,73.80
2019-03-28T00:38:36.359Z,71.37
2019-03-28T00:41:05.925Z,70.80
2019-03-28T00:43:35.513Z,69.63
2019-03-28T00:46:05.052Z,68.30
2019-03-28T00:48:34.602Z,66.00
2019-03-28T00:51:04.605Z,63.73
2019-03-28T00:53:34.158Z,63.17
2019-03-28T00:56:03.851Z,63.87
2019-03-28T00:58:34.178Z,64.23
2019-03-28T01:01:03.763Z,72.93
2019-03-28T01:03:33.318Z,71.53
2019-03-28T01:06:02.874Z,71.80
2019-03-28T01:08:32.454Z,68.47
2019-03-28T01:11:01.996Z,68.53
2019-03-28T01:13:31.530Z,66.13
2019-03-28T01:16:01.183Z,66.23
2019-03-28T01:18:30.727Z,70.20
2019-03-28T01:21:00.162Z,72.87
2019-03-28T01:23:29.618Z,74.50
2019-03-28T01:25:59.039Z,73.30
2019-03-28T01:28:28.394Z,73.33
2019-03-28T01:30:57.739Z,76.17
2019-03-28T01:33:27.402Z,79.10
2019-03-28T01:35:56.868Z,78.43
2019-03-28T01:38:26.206Z,80.00
2019-03-28T01:40:55.551Z,78.97
2019-03-28T01:43:25.027Z,82.33
2019-03-28T01:45:54.554Z,79.37
2019-03-28T01:48:23.978Z,78.13
2019-03-28T01:50:53.314Z,78.43
2019-03-28T01:53:22.841Z,79.47
2019-03-28T01:55:52.371Z,77.73
2019-03-28T01:58:21.796Z,75.83
2019-03-28T02:00:51.063Z,76.00
2019-03-28T02:03:20.361Z,76.27
2019-03-28T02:05:50.075Z,73.03
2019-03-28T02:08:19.623Z,71.37
2019-03-28T02:10:49.391Z,71.70
2019-03-28T02:13:22.283Z,73.70
2019-03-28T02:15:52.047Z,72.30
2019-03-28T02:18:21.608Z,73.00
2019-03-28T02:20:51.190Z,73.20
2019-03-28T02:23:20.721Z,72.47
2019-03-28T02:25:50.279Z,69.83
2019-03-28T02:28:19.836Z,71.00
2019-03-28T02:30:50.668Z,69.70
2019-03-28T02:33:20.403Z,67.47
2019-03-28T02:35:49.863Z,67.73
2019-03-28T02:38:19.447Z,69.57
2019-03-28T02:40:48.977Z,65.43
2019-03-28T02:43:19.789Z,66.30
2019-03-28T02:45:49.813Z,64.23
2019-03-28T02:48:19.383Z,62.30
2019-03-28T02:50:48.934Z,62.97
2019-03-28T02:53:18.516Z,60.90
2019-03-28T02:55:48.052Z,61.07
2019-03-28T02:58:17.596Z,61.67
2019-03-28T03:00:47.872Z,62.20
2019-03-28T03:03:17.708Z,63.97
2019-03-28T03:05:47.243Z,60.60
2019-03-28T03:08:16.818Z,60.20
2019-03-28T03:10:46.394Z,59.23
2019-03-28T03:13:15.907Z,60.43
2019-03-28T03:16:04.828Z,59.93
2019-03-28T03:18:34.489Z,61.53
2019-03-28T03:21:04.229Z,62.80
2019-03-28T03:23:33.748Z,64.60
2019-03-28T03:26:03.314Z,63.20
2019-03-28T03:28:32.863Z,66.50
2019-03-28T03:31:02.419Z,65.07
2019-03-28T03:33:31.973Z,68.00
2019-03-28T03:36:01.537Z,68.70
2019-03-28T03:38:31.139Z,69.33
2019-03-28T03:41:00.679Z,72.23
2019-03-28T03:43:30.260Z,73.03
2019-03-28T03:45:59.811Z,71.97
2019-03-28T03:48:29.357Z,74.60
2019-03-28T03:50:58.934Z,73.33
2019-03-28T03:53:28.483Z,73.40
2019-03-28T03:55:58.040Z,75.20
2019-03-28T03:58:27.606Z,73.90
2019-03-28T04:00:57.143Z,78.63
2019-03-28T04:03:26.735Z,81.97
2019-03-28T04:05:56.292Z,81.20
2019-03-28T04:08:26.928Z,83.63
2019-03-28T04:10:56.799Z,85.27
2019-03-28T04:13:26.356Z,86.33
2019-03-28T04:15:55.956Z,80.43
2019-03-28T04:18:25.517Z,85.20
2019-03-28T04:21:07.572Z,77.23
2019-03-28T04:23:37.118Z,81.63
2019-03-28T04:26:07.024Z,84.00
2019-03-28T04:28:36.572Z,84.83
2019-03-28T04:31:06.116Z,78.17
2019-03-28T04:33:35.862Z,77.37
2019-03-28T04:36:05.624Z,84.83
2019-03-28T04:38:35.195Z,82.43
2019-03-28T04:41:04.749Z,86.67
2019-03-28T04:43:34.306Z,85.80
2019-03-28T04:46:03.851Z,84.07
2019-03-28T04:48:33.409Z,83.67
2019-03-28T04:51:04.044Z,84.33
2019-03-28T04:53:33.591Z,79.90
2019-03-28T04:56:03.915Z,78.40
2019-03-28T04:58:43.911Z,77.97
2019-03-28T05:01:04.938Z,76.90
2019-03-28T05:03:34.508Z,75.23
2019-03-28T05:06:04.055Z,72.80
2019-03-28T05:08:33.627Z,74.53
2019-03-28T05:11:03.167Z,71.30
2019-03-28T05:13:32.717Z,67.93
2019-03-28T05:16:02.322Z,72.37
2019-03-28T05:18:32.252Z,66.90
2019-03-28T05:21:01.828Z,71.83
2019-03-28T05:23:31.379Z,67.40
2019-03-28T05:26:00.913Z,67.97
2019-03-28T05:28:30.546Z,69.10
2019-03-28T05:31:00.087Z,71.10
2019-03-28T05:33:29.760Z,62.90
2019-03-28T05:35:59.312Z,62.93
2019-03-28T05:38:28.850Z,60.80
2019-03-28T05:40:58.431Z,64.33
2019-03-28T05:43:27.996Z,68.00
2019-03-28T05:45:57.539Z,63.30
2019-03-28T05:48:27.099Z,61.37
2019-03-28T05:50:56.635Z,66.50
2019-03-28T05:53:26.248Z,64.37
2019-03-28T05:55:55.856Z,61.33
2019-03-28T05:58:25.434Z,66.10
2019-03-28T06:00:54.994Z,66.53
2019-03-28T06:03:24.561Z,67.47
2019-03-28T06:05:54.260Z,70.13
2019-03-28T06:08:23.795Z,69.10
2019-03-28T06:10:53.347Z,65.63
2019-03-28T06:13:22.904Z,67.70
2019-03-28T06:15:53.451Z,69.10
2019-03-28T06:18:24.031Z,69.87
2019-03-28T06:20:53.582Z,69.30
2019-03-28T06:23:23.135Z,72.77
2019-03-28T06:25:52.699Z,73.07
2019-03-28T06:28:22.254Z,67.07
2019-03-28T06:30:52.247Z,67.23
2019-03-28T06:33:30.603Z,63.83
2019-03-28T06:36:06.047Z,65.47
2019-03-28T06:38:42.637Z,69.80
2019-03-28T06:41:18.367Z,65.13
2019-03-28T06:43:54.131Z,61.43
2019-03-28T06:46:28.848Z,66.63
2019-03-28T06:49:04.596Z,67.20
2019-03-28T06:51:41.147Z,64.73
2019-03-28T06:54:16.611Z,66.47
2019-03-28T06:56:54.637Z,65.10
2019-03-28T06:59:37.417Z,65.57
2019-03-28T07:02:04.991Z,65.30
2019-03-28T07:04:38.142Z,64.90
2019-03-28T07:07:18.487Z,64.13
2019-03-28T07:09:57.175Z,60.60
2019-03-28T07:12:38.183Z,63.20
2019-03-28T07:15:11.324Z,60.93
2019-03-28T07:17:48.194Z,58.43
2019-03-28T07:20:27.639Z,62.33
2019-03-28T07:23:02.571Z,64.90
2019-03-28T07:25:39.193Z,64.03
2019-03-28T07:28:16.842Z,57.57
2019-03-28T07:30:55.191Z,57.77
2019-03-28T07:33:33.668Z,56.07
2019-03-28T07:36:14.203Z,56.77
2019-03-28T07:38:52.644Z,58.10
2019-03-28T07:41:31.202Z,56.13
2019-03-28T07:44:08.753Z,57.90
2019-03-28T07:46:47.714Z,56.40
2019-03-28T07:49:29.676Z,58.57
2019-03-28T07:52:02.054Z,58.33
2019-03-28T07:54:40.669Z,58.03
2019-03-28T07:57:13.039Z,55.90
2019-03-28T08:00:03.543Z,54.43
2019-03-28T08:02:28.130Z,56.87
2019-03-28T08:05:01.465Z,54.23
2019-03-28T08:07:45.193Z,56.50
2019-03-28T08:10:18.262Z,55.60
2019-03-28T08:12:55.942Z,52.47
2019-03-28T08:15:35.176Z,54.03
2019-03-28T08:18:15.299Z,54.53
2019-03-28T08:20:54.255Z,52.43
2019-03-28T08:23:35.053Z,54.07
2019-03-28T08:26:12.721Z,49.57
2019-03-28T08:28:51.286Z,52.77
2019-03-28T08:31:34.771Z,52.87
2019-03-28T08:34:12.303Z,51.50
2019-03-28T08:36:45.661Z,53.37
2019-03-28T08:39:17.522Z,53.13
2019-03-28T08:41:56.753Z,53.60
2019-03-28T08:44:35.315Z,51.47
2019-03-28T08:47:16.755Z,54.63
2019-03-28T08:49:58.552Z,53.83
2019-03-28T08:52:36.316Z,50.97
2019-03-28T08:55:14.316Z,55.10
2019-03-28T08:57:53.278Z,49.40
2019-03-28T09:00:34.998Z,50.33
2019-03-28T09:03:07.644Z,52.90
2019-03-28T09:05:47.327Z,51.80
2019-03-28T09:08:25.331Z,49.10
2019-03-28T09:11:00.270Z,51.37
2019-03-28T09:13:39.765Z,52.70
2019-03-28T09:16:17.327Z,50.27
2019-03-28T09:18:55.258Z,52.57
2019-03-28T09:21:29.783Z,51.77
2019-03-28T09:24:07.349Z,50.60
2019-03-28T09:26:42.818Z,49.33
2019-03-28T09:29:24.515Z,46.93
2019-03-28T09:32:02.002Z,48.57
2019-03-28T09:34:41.235Z,47.43
2019-03-28T09:37:18.372Z,47.50
2019-03-28T09:39:55.380Z,50.70
2019-03-28T09:42:32.394Z,50.40
2019-03-28T09:45:20.631Z,50.37
2019-03-28T09:47:59.855Z,48.07
2019-03-28T09:50:41.411Z,48.00
2019-03-28T09:53:13.098Z,50.73
2019-03-28T09:55:51.471Z,48.07
2019-03-28T09:58:26.752Z,47.33
2019-03-28T10:01:06.472Z,45.07
2019-03-28T10:03:50.951Z,45.27
2019-03-28T10:06:31.483Z,44.73
2019-03-28T10:09:05.117Z,44.97
2019-03-28T10:11:43.944Z,45.90
2019-03-28T10:14:17.437Z,44.63
2019-03-28T10:16:52.988Z,44.90
2019-03-28T10:19:31.544Z,45.27
2019-03-28T10:22:12.546Z,43.23
2019-03-28T10:24:52.014Z,39.27
2019-03-28T10:27:30.546Z,37.47
2019-03-28T10:30:14.555Z,40.40
2019-03-28T10:32:49.555Z,40.43
2019-03-28T10:35:33.043Z,39.50
2019-03-28T10:38:09.103Z,40.83
2019-03-28T10:40:40.861Z,39.60
2019-03-28T10:43:18.458Z,39.10
2019-03-28T10:45:56.455Z,37.17
2019-03-28T10:48:39.617Z,38.50
2019-03-28T10:51:18.620Z,37.83
2019-03-28T10:53:52.617Z,37.87
2019-03-28T10:56:31.631Z,36.97
2019-03-28T10:59:22.616Z,36.83
2019-03-28T11:01:51.638Z,35.07
2019-03-28T11:04:31.647Z,33.20
2019-03-28T11:07:11.663Z,32.10
2019-03-28T11:09:53.681Z,29.90
2019-03-28T11:12:27.658Z,30.50
2019-03-28T11:15:07.689Z,31.00
2019-03-28T11:17:45.689Z,31.47
2019-03-28T11:20:25.150Z,31.50
2019-03-28T11:23:03.709Z,25.43
2019-03-28T11:25:40.248Z,27.30
2019-03-28T11:28:17.738Z,26.83
2019-03-28T11:30:50.103Z,27.27
2019-03-28T11:33:31.181Z,26.67
2019-03-28T11:36:12.153Z,26.37
2019-03-28T11:38:45.140Z,25.30
2019-03-28T11:41:20.597Z,26.67
2019-03-28T11:44:00.722Z,26.13
2019-03-28T11:46:45.195Z,27.47
2019-03-28T11:49:21.043Z,31.47
2019-03-28T11:51:59.722Z,30.20
2019-03-28T11:54:39.204Z,30.50
2019-03-28T11:57:18.723Z,32.00
2019-03-28T11:59:57.909Z,28.73
2019-03-28T12:02:26.354Z,31.40
2019-03-28T12:05:03.723Z,29.23
2019-03-28T12:07:37.342Z,28.93
2019-03-28T12:10:13.201Z,27.27
2019-03-28T12:12:50.074Z,27.63
2019-03-28T12:15:20.092Z,28.37
2019-03-28T12:17:57.729Z,28.27
2019-03-28T12:20:29.852Z,29.00
2019-03-28T12:23:00.182Z,28.83
2019-03-28T12:25:30.193Z,25.20
2019-03-28T12:28:00.686Z,26.27
2019-03-28T12:30:30.639Z,26.20
2019-03-28T12:33:00.964Z,26.93
2019-03-28T12:35:32.104Z,28.20
2019-03-28T12:38:08.275Z,27.43
2019-03-28T12:40:50.819Z,27.43
2019-03-28T12:43:32.817Z,26.57
2019-03-28T12:46:08.113Z,25.57
2019-03-28T12:48:50.841Z,26.17
2019-03-28T12:51:26.510Z,26.07
2019-03-28T12:54:04.858Z,26.57
2019-03-28T12:56:44.329Z,25.53
2019-03-28T12:59:22.332Z,23.97
2019-03-28T13:02:03.859Z,23.13
2019-03-28T13:04:41.868Z,21.73
2019-03-28T13:07:22.869Z,21.87
2019-03-28T13:10:01.858Z,23.00
2019-03-28T13:12:33.273Z,23.00
2019-03-28T13:15:11.870Z,23.70
2019-03-28T13:17:44.573Z,24.37
2019-03-28T13:20:22.157Z,25.00
2019-03-28T13:23:02.871Z,22.67
2019-03-28T13:25:35.003Z,22.13
2019-03-28T13:28:05.332Z,19.13
2019-03-28T13:30:35.650Z,20.07
2019-03-28T13:33:05.768Z,21.97
2019-03-28T13:35:35.785Z,25.17
2019-03-28T13:38:15.731Z,23.33
2019-03-28T13:40:47.797Z,23.53
2019-03-28T13:43:20.791Z,22.77
2019-03-28T13:45:56.892Z,23.23
2019-03-28T13:48:30.033Z,23.47
2019-03-28T13:51:07.835Z,16.03
2019-03-28T13:53:46.347Z,25.07
2019-03-28T13:56:18.914Z,24.07
2019-03-28T13:58:49.145Z,19.80
2019-03-28T14:01:19.879Z,21.47
2019-03-28T14:04:02.803Z,19.83
2019-03-28T14:06:43.954Z,17.63
2019-03-28T14:09:24.923Z,22.97
2019-03-28T14:12:02.924Z,21.77
2019-03-28T14:14:41.919Z,22.53
2019-03-28T14:17:20.922Z,22.37
2019-03-28T14:19:55.122Z,24.57
2019-03-28T14:22:30.363Z,25.53
2019-03-28T14:25:09.919Z,25.03
2019-03-28T14:27:45.655Z,24.73
2019-03-28T14:30:23.950Z,25.77
2019-03-28T14:33:11.119Z,70.27
2019-03-28T14:35:39.465Z,29.97
2019-03-28T14:38:15.313Z,25.33
2019-03-28T14:40:51.957Z,24.50
2019-03-28T14:43:25.177Z,18.07
2019-03-28T14:46:00.724Z,17.50
2019-03-28T14:48:38.453Z,18.40
2019-03-28T14:51:16.995Z,19.60
2019-03-28T14:53:55.912Z,21.70
2019-03-28T14:56:36.979Z,27.13
2019-03-28T14:59:09.412Z,36.93
2019-03-28T15:01:42.709Z,27.83
2019-03-28T15:04:16.986Z,93.47
2019-03-28T15:06:59.628Z,40.77
2019-03-28T15:09:36.995Z,36.03
2019-03-28T15:12:15.442Z,22.80
2019-03-28T15:14:54.468Z,29.30
2019-03-28T15:17:30.004Z,22.77
2019-03-28T15:20:06.482Z,100.30
2019-03-28T15:23:01.188Z,40.33
2019-03-28T15:25:39.490Z,27.77
2019-03-28T15:28:21.489Z,39.93
2019-03-28T15:31:03.012Z,21.73
2019-03-28T15:33:40.093Z,23.03
2019-03-28T15:36:17.017Z,23.93
2019-03-28T15:38:56.471Z,26.03
2019-03-28T15:41:37.011Z,25.67
2019-03-28T15:44:16.011Z,18.70
2019-03-28T15:49:37.497Z,21.63
2019-03-28T15:52:20.072Z,20.47
2019-03-28T15:54:52.686Z,21.40
2019-03-28T15:57:31.068Z,29.77
2019-03-28T16:00:11.083Z,29.10
2019-03-28T16:02:48.082Z,31.80
2019-03-28T16:05:29.515Z,25.17
2019-03-28T16:08:07.520Z,24.37
2019-03-28T16:10:46.089Z,22.60
2019-03-28T16:13:24.090Z,21.90
2019-03-28T16:16:05.097Z,22.87
2019-03-28T16:18:43.104Z,24.07
2019-03-28T16:21:26.505Z,23.93
2019-03-28T16:23:58.003Z,25.63
2019-03-28T16:26:34.106Z,29.40
2019-03-28T16:29:11.127Z,26.83
2019-03-28T16:31:49.128Z,36.93
2019-03-28T16:34:26.138Z,30.43
2019-03-28T16:37:02.594Z,28.00
2019-03-28T16:39:43.567Z,29.33
2019-03-28T16:42:22.124Z,25.77
2019-03-28T16:45:04.600Z,32.57
2019-03-28T16:47:46.126Z,37.77
2019-03-28T16:50:22.648Z,41.07
2019-03-28T16:52:55.737Z,55.80
2019-03-28T16:55:34.561Z,49.63
2019-03-28T16:58:16.122Z,53.47
2019-03-28T17:00:54.125Z,44.50
2019-03-28T17:03:33.122Z,42.57
2019-03-28T17:06:14.121Z,40.33
2019-03-28T17:08:53.123Z,38.57
2019-03-28T17:11:27.397Z,62.80
2019-03-28T17:13:59.785Z,82.17
2019-03-28T17:16:35.932Z,60.40
2019-03-28T17:19:11.589Z,86.80
2019-03-28T17:21:48.763Z,99.37
2019-03-28T17:24:28.026Z,116.13
2019-03-28T17:27:05.120Z,117.97
2019-03-28T17:29:37.463Z,103.77
2019-03-28T17:32:15.119Z,74.50
2019-03-28T17:34:57.558Z,52.50
2019-03-28T17:37:36.118Z,49.77
2019-03-28T17:40:09.466Z,39.80
2019-03-28T17:42:50.072Z,36.23
2019-03-28T17:45:23.836Z,34.30
2019-03-28T17:48:02.707Z,30.07
2019-03-28T17:50:41.120Z,31.60
2019-03-28T17:53:36.587Z,29.83
2019-03-28T17:56:18.585Z,28.17
2019-03-28T17:58:57.521Z,40.60
2019-03-28T18:01:38.118Z,50.10
2019-03-28T18:04:23.173Z,47.83
2019-03-28T18:06:55.199Z,35.90
2019-03-28T18:09:26.046Z,34.43
2019-03-28T18:11:56.119Z,30.43
2019-03-28T18:14:34.590Z,37.87
2019-03-28T18:17:15.557Z,46.53
2019-03-28T18:19:53.116Z,62.80
2019-03-28T18:22:25.517Z,104.03
2019-03-28T18:25:00.552Z,84.00
2019-03-28T18:27:36.611Z,54.90
2019-03-28T18:30:08.062Z,47.27
2019-03-28T18:32:45.115Z,41.20
2019-03-28T18:35:24.117Z,34.93
2019-03-28T18:38:02.114Z,50.50
2019-03-28T18:40:40.588Z,39.70
2019-03-28T18:43:22.116Z,33.70
2019-03-28T18:46:01.119Z,35.40
2019-03-28T18:48:42.115Z,29.80
2019-03-28T18:51:23.560Z,31.97
2019-03-28T18:54:04.118Z,30.07
2019-03-28T18:56:42.113Z,36.17
2019-03-28T18:59:15.320Z,36.10
2019-03-28T19:01:51.584Z,37.93
2019-03-28T19:04:33.113Z,31.20
2019-03-28T19:07:12.113Z,33.23
2019-03-28T19:09:46.519Z,52.47
2019-03-28T19:12:21.925Z,52.70
2019-03-28T19:14:54.742Z,46.57
2019-03-28T19:17:36.114Z,41.50
2019-03-28T19:20:14.115Z,43.57
2019-03-28T19:22:56.113Z,50.13
2019-03-28T19:25:29.523Z,54.87
2019-03-28T19:28:08.116Z,34.77
2019-03-28T19:30:46.555Z,40.53
2019-03-28T19:33:25.583Z,43.87
2019-03-28T19:36:07.111Z,41.63
2019-03-28T19:38:45.585Z,51.80
2019-03-28T19:41:25.110Z,48.23
2019-03-28T19:44:05.587Z,38.07
2019-03-28T19:46:51.589Z,44.63
2019-03-28T19:49:32.043Z,51.40
2019-03-28T19:52:05.952Z,41.47
2019-03-28T19:54:46.114Z,39.20
2019-03-28T19:57:21.853Z,51.30
2019-03-28T20:00:00.363Z,50.53
2019-03-28T20:02:36.635Z,77.37
2019-03-28T20:05:16.124Z,52.13
2019-03-28T20:07:52.026Z,56.10
2019-03-28T20:10:35.121Z,75.40
2019-03-28T20:13:13.360Z,58.13
2019-03-28T20:15:53.618Z,73.57
2019-03-28T20:18:28.443Z,62.53
2019-03-28T20:21:10.444Z,60.43
2019-03-28T20:23:48.831Z,53.90
2019-03-28T20:26:29.740Z,74.00
2019-03-28T20:29:10.601Z,95.73
2019-03-28T20:31:45.755Z,68.10
2019-03-28T20:34:22.615Z,80.63
2019-03-28T20:36:57.953Z,75.10
2019-03-28T20:39:32.828Z,95.57
2019-03-28T20:42:09.660Z,98.13
2019-03-28T20:44:46.129Z,61.73
2019-03-28T20:47:19.832Z,61.03
2019-03-28T20:50:01.589Z,91.53
2019-03-28T20:52:41.679Z,107.40
2019-03-28T20:55:20.707Z,104.67
2019-03-28T20:57:55.144Z,101.17
2019-03-28T21:00:39.486Z,124.10
2019-03-28T21:03:15.394Z,79.23
2019-03-28T21:05:53.281Z,68.57
2019-03-28T21:11:23.577Z,72.10
2019-03-28T21:14:01.833Z,72.50
2019-03-28T21:16:47.780Z,85.03
2019-03-28T21:19:22.094Z,72.47
2019-03-28T21:21:57.743Z,75.83
2019-03-28T21:24:36.774Z,68.37
2019-03-28T21:27:20.400Z,67.90
2019-03-28T21:29:53.599Z,101.50
2019-03-28T21:32:23.826Z,94.23
2019-03-28T21:34:56.422Z,66.40
2019-03-28T21:37:25.799Z,71.90
2019-03-28T21:39:55.917Z,64.10
2019-03-28T21:42:26.242Z,88.03
2019-03-28T21:44:58.343Z,86.67
2019-03-28T21:47:28.221Z,79.20
2019-03-28T21:49:58.239Z,66.63
2019-03-28T21:52:28.665Z,61.90
2019-03-28T21:54:58.788Z,51.80
2019-03-28T21:57:29.315Z,54.50
2019-03-28T22:00:00.051Z,59.27
2019-03-28T22:02:30.165Z,58.93
2019-03-28T22:05:01.337Z,57.07
2019-03-28T22:07:33.475Z,52.13
2019-03-28T22:10:04.314Z,60.97
2019-03-28T22:12:35.249Z,47.70
2019-03-28T22:15:08.850Z,48.13
2019-03-28T22:17:39.074Z,41.57
2019-03-28T22:20:09.191Z,45.60
2019-03-28T22:22:39.369Z,46.77
2019-03-28T22:25:09.326Z,44.83
2019-03-28T22:27:39.345Z,56.73
2019-03-28T22:30:10.496Z,46.70
2019-03-28T22:32:40.504Z,52.23
2019-03-28T22:35:10.725Z,52.13
2019-03-28T22:37:40.844Z,50.83
2019-03-28T22:40:12.117Z,58.63
2019-03-28T22:42:42.324Z,56.13
2019-03-28T22:45:12.410Z,49.63
2019-03-28T22:47:42.859Z,57.47
2019-03-28T22:50:13.181Z,53.03
2019-03-28T22:52:43.428Z,57.53
2019-03-28T22:55:13.522Z,61.37
2019-03-28T22:57:43.743Z,55.43
2019-03-28T23:00:14.271Z,50.57
2019-03-28T23:02:46.253Z,50.73
2019-03-28T23:05:16.558Z,51.07
2019-03-28T23:07:46.574Z,46.97
2019-03-28T23:10:17.296Z,49.50
2019-03-28T23:12:49.425Z,53.80
2019-03-28T23:15:21.921Z,55.47
2019-03-28T23:17:51.558Z,59.27
2019-03-28T23:20:21.881Z,54.83
2019-03-28T23:22:51.900Z,51.10
2019-03-28T23:25:22.426Z,47.77
2019-03-28T23:27:52.835Z,53.33
2019-03-28T23:30:23.278Z,59.47
2019-03-28T23:32:53.705Z,51.53
2019-03-28T23:35:23.926Z,49.87
2019-03-28T23:37:54.090Z,57.10
2019-03-28T23:40:26.334Z,58.73
2019-03-28T23:42:56.331Z,63.43
2019-03-28T23:45:27.270Z,51.30
2019-03-28T23:47:57.287Z,53.20
2019-03-28T23:50:27.612Z,53.60
2019-03-28T23:52:57.731Z,52.37
2019-03-28T23:55:28.054Z,52.30
2019-03-28T23:57:58.438Z,50.23
